sensor_id;sensor_type;location;lat;lon;timestamp;P1;durP1;ratioP1;P2;durP2;ratioP2
14400;SDS011;7285;50.894;5.462;2023-02-07T00:01:30;1.90;;;1.90;;
14400;SDS011;7285;50.894;5.462;2023-02-07T00:03:58;1.20;;;1.20;;
14400;SDS011;7285;50.894;5.462;2023-02-07T00:06:28;1.70;;;1.70;;
14400;SDS011;7285;50.894;5.462;2023-02-07T00:08:57;2.00;;;2.00;;
14400;SDS011;7285;50.894;5.462;2023-02-07T00:11:25;1.40;;;1.40;;
14400;SDS011;7285;50.894;5.462;2023-02-07T00:13:53;1.50;;;1.50;;
14400;SDS011;7285;50.894;5.462;2023-02-07T00:16:21;1.40;;;1.40;;
14400;SDS011;7285;50.894;5.462;2023-02-07T00:18:49;1.30;;;1.30;;
14400;SDS011;7285;50.894;5.462;2023-02-07T00:21:18;1.40;;;1.40;;
14400;SDS011;7285;50.894;5.462;2023-02-07T00:23:48;1.60;;;1.60;;
14400;SDS011;7285;50.894;5.462;2023-02-07T00:26:16;2.07;;;2.07;;
14400;SDS011;7285;50.894;5.462;2023-02-07T00:28:45;1.23;;;1.23;;
14400;SDS011;7285;50.894;5.462;2023-02-07T00:31:12;1.33;;;1.33;;
14400;SDS011;7285;50.894;5.462;2023-02-07T00:33:42;1.20;;;1.20;;
14400;SDS011;7285;50.894;5.462;2023-02-07T00:36:10;1.40;;;1.40;;
14400;SDS011;7285;50.894;5.462;2023-02-07T00:38:38;1.40;;;1.40;;
14400;SDS011;7285;50.894;5.462;2023-02-07T00:41:07;1.40;;;1.40;;
14400;SDS011;7285;50.894;5.462;2023-02-07T00:43:35;1.50;;;1.50;;
14400;SDS011;7285;50.894;5.462;2023-02-07T00:46:02;1.60;;;1.60;;
14400;SDS011;7285;50.894;5.462;2023-02-07T00:48:30;1.73;;;1.73;;
14400;SDS011;7285;50.894;5.462;2023-02-07T00:50:57;1.30;;;1.30;;
14400;SDS011;7285;50.894;5.462;2023-02-07T00:53:25;1.40;;;1.40;;
14400;SDS011;7285;50.894;5.462;2023-02-07T00:55:53;1.60;;;1.60;;
14400;SDS011;7285;50.894;5.462;2023-02-07T00:58:21;1.63;;;1.63;;
14400;SDS011;7285;50.894;5.462;2023-02-07T01:00:48;1.20;;;1.20;;
14400;SDS011;7285;50.894;5.462;2023-02-07T01:03:16;1.40;;;1.40;;
14400;SDS011;7285;50.894;5.462;2023-02-07T01:05:43;1.60;;;1.60;;
14400;SDS011;7285;50.894;5.462;2023-02-07T01:08:10;1.40;;;1.40;;
14400;SDS011;7285;50.894;5.462;2023-02-07T01:10:37;2.30;;;2.30;;
14400;SDS011;7285;50.894;5.462;2023-02-07T01:13:05;1.53;;;1.53;;
14400;SDS011;7285;50.894;5.462;2023-02-07T01:15:36;1.57;;;1.57;;
14400;SDS011;7285;50.894;5.462;2023-02-07T01:18:03;1.60;;;1.60;;
14400;SDS011;7285;50.894;5.462;2023-02-07T01:20:31;1.57;;;1.57;;
14400;SDS011;7285;50.894;5.462;2023-02-07T01:22:58;1.60;;;1.60;;
14400;SDS011;7285;50.894;5.462;2023-02-07T01:25:25;1.50;;;1.50;;
14400;SDS011;7285;50.894;5.462;2023-02-07T01:27:52;1.70;;;1.70;;
14400;SDS011;7285;50.894;5.462;2023-02-07T01:30:19;1.50;;;1.50;;
14400;SDS011;7285;50.894;5.462;2023-02-07T01:32:47;1.43;;;1.43;;
14400;SDS011;7285;50.894;5.462;2023-02-07T01:35:14;1.80;;;1.80;;
14400;SDS011;7285;50.894;5.462;2023-02-07T01:37:41;1.60;;;1.60;;
14400;SDS011;7285;50.894;5.462;2023-02-07T01:40:09;1.60;;;1.60;;
14400;SDS011;7285;50.894;5.462;2023-02-07T01:42:37;1.47;;;1.47;;
14400;SDS011;7285;50.894;5.462;2023-02-07T01:45:07;1.80;;;1.80;;
14400;SDS011;7285;50.894;5.462;2023-02-07T01:47:43;1.47;;;1.47;;
14400;SDS011;7285;50.894;5.462;2023-02-07T01:50:12;1.60;;;1.60;;
14400;SDS011;7285;50.894;5.462;2023-02-07T01:52:40;2.57;;;2.53;;
14400;SDS011;7285;50.894;5.462;2023-02-07T01:55:08;1.60;;;1.60;;
14400;SDS011;7285;50.894;5.462;2023-02-07T01:57:38;1.50;;;1.50;;
14400;SDS011;7285;50.894;5.462;2023-02-07T02:00:06;1.80;;;1.80;;
14400;SDS011;7285;50.894;5.462;2023-02-07T02:02:35;1.50;;;1.50;;
14400;SDS011;7285;50.894;5.462;2023-02-07T02:05:03;1.87;;;1.87;;
14400;SDS011;7285;50.894;5.462;2023-02-07T02:07:33;1.43;;;1.43;;
14400;SDS011;7285;50.894;5.462;2023-02-07T02:10:01;1.60;;;1.60;;
14400;SDS011;7285;50.894;5.462;2023-02-07T02:12:36;1.60;;;1.60;;
14400;SDS011;7285;50.894;5.462;2023-02-07T02:15:19;1.50;;;1.50;;
14400;SDS011;7285;50.894;5.462;2023-02-07T02:18:01;1.63;;;1.63;;
14400;SDS011;7285;50.894;5.462;2023-02-07T02:20:47;1.50;;;1.50;;
14400;SDS011;7285;50.894;5.462;2023-02-07T02:23:43;1.50;;;1.50;;
14400;SDS011;7285;50.894;5.462;2023-02-07T02:29:33;1.43;;;1.43;;
14400;SDS011;7285;50.894;5.462;2023-02-07T02:32:44;1.50;;;1.50;;
14400;SDS011;7285;50.894;5.462;2023-02-07T02:35:34;1.70;;;1.70;;
14400;SDS011;7285;50.894;5.462;2023-02-07T02:38:10;1.53;;;1.53;;
14400;SDS011;7285;50.894;5.462;2023-02-07T02:40:43;1.50;;;1.50;;
14400;SDS011;7285;50.894;5.462;2023-02-07T02:43:18;1.50;;;1.50;;
14400;SDS011;7285;50.894;5.462;2023-02-07T02:45:52;1.50;;;1.50;;
14400;SDS011;7285;50.894;5.462;2023-02-07T02:48:24;1.80;;;1.80;;
14400;SDS011;7285;50.894;5.462;2023-02-07T02:50:52;2.20;;;2.20;;
14400;SDS011;7285;50.894;5.462;2023-02-07T02:53:20;1.60;;;1.60;;
14400;SDS011;7285;50.894;5.462;2023-02-07T02:55:52;1.60;;;1.60;;
14400;SDS011;7285;50.894;5.462;2023-02-07T02:58:37;1.70;;;1.70;;
14400;SDS011;7285;50.894;5.462;2023-02-07T03:01:15;1.50;;;1.50;;
14400;SDS011;7285;50.894;5.462;2023-02-07T03:06:53;1.60;;;1.60;;
14400;SDS011;7285;50.894;5.462;2023-02-07T03:09:33;1.50;;;1.50;;
14400;SDS011;7285;50.894;5.462;2023-02-07T03:12:09;2.23;;;2.23;;
14400;SDS011;7285;50.894;5.462;2023-02-07T03:14:44;1.60;;;1.60;;
14400;SDS011;7285;50.894;5.462;2023-02-07T03:17:20;1.60;;;1.60;;
14400;SDS011;7285;50.894;5.462;2023-02-07T03:19:54;1.60;;;1.60;;
14400;SDS011;7285;50.894;5.462;2023-02-07T03:22:26;1.70;;;1.70;;
14400;SDS011;7285;50.894;5.462;2023-02-07T03:24:55;1.60;;;1.60;;
14400;SDS011;7285;50.894;5.462;2023-02-07T03:27:24;1.70;;;1.70;;
14400;SDS011;7285;50.894;5.462;2023-02-07T03:29:54;1.70;;;1.70;;
14400;SDS011;7285;50.894;5.462;2023-02-07T03:32:25;1.70;;;1.70;;
14400;SDS011;7285;50.894;5.462;2023-02-07T03:34:58;1.60;;;1.60;;
14400;SDS011;7285;50.894;5.462;2023-02-07T03:37:31;2.10;;;2.10;;
14400;SDS011;7285;50.894;5.462;2023-02-07T03:40:03;1.70;;;1.70;;
14400;SDS011;7285;50.894;5.462;2023-02-07T03:42:32;1.50;;;1.50;;
14400;SDS011;7285;50.894;5.462;2023-02-07T03:45:03;1.50;;;1.50;;
14400;SDS011;7285;50.894;5.462;2023-02-07T03:47:33;1.70;;;1.70;;
14400;SDS011;7285;50.894;5.462;2023-02-07T03:50:01;1.60;;;1.60;;
14400;SDS011;7285;50.894;5.462;2023-02-07T03:52:28;1.60;;;1.60;;
14400;SDS011;7285;50.894;5.462;2023-02-07T03:54:55;1.80;;;1.80;;
14400;SDS011;7285;50.894;5.462;2023-02-07T03:57:22;1.60;;;1.60;;
14400;SDS011;7285;50.894;5.462;2023-02-07T03:59:49;1.70;;;1.70;;
14400;SDS011;7285;50.894;5.462;2023-02-07T04:02:16;1.57;;;1.57;;
14400;SDS011;7285;50.894;5.462;2023-02-07T04:04:43;1.60;;;1.60;;
14400;SDS011;7285;50.894;5.462;2023-02-07T04:07:11;1.60;;;1.60;;
14400;SDS011;7285;50.894;5.462;2023-02-07T04:09:39;1.60;;;1.60;;
14400;SDS011;7285;50.894;5.462;2023-02-07T04:12:06;1.60;;;1.60;;
14400;SDS011;7285;50.894;5.462;2023-02-07T04:14:33;1.50;;;1.50;;
14400;SDS011;7285;50.894;5.462;2023-02-07T04:17:00;1.60;;;1.60;;
14400;SDS011;7285;50.894;5.462;2023-02-07T04:19:27;1.70;;;1.70;;
14400;SDS011;7285;50.894;5.462;2023-02-07T04:21:54;1.70;;;1.70;;
14400;SDS011;7285;50.894;5.462;2023-02-07T04:24:22;1.97;;;1.97;;
14400;SDS011;7285;50.894;5.462;2023-02-07T04:26:50;1.50;;;1.50;;
14400;SDS011;7285;50.894;5.462;2023-02-07T04:29:17;1.60;;;1.60;;
14400;SDS011;7285;50.894;5.462;2023-02-07T04:31:44;1.70;;;1.70;;
14400;SDS011;7285;50.894;5.462;2023-02-07T04:34:11;1.70;;;1.70;;
14400;SDS011;7285;50.894;5.462;2023-02-07T04:36:38;1.70;;;1.70;;
14400;SDS011;7285;50.894;5.462;2023-02-07T04:39:05;1.67;;;1.67;;
14400;SDS011;7285;50.894;5.462;2023-02-07T04:41:33;1.60;;;1.60;;
14400;SDS011;7285;50.894;5.462;2023-02-07T04:44:00;2.00;;;2.00;;
14400;SDS011;7285;50.894;5.462;2023-02-07T04:46:27;1.60;;;1.60;;
14400;SDS011;7285;50.894;5.462;2023-02-07T04:48:54;1.70;;;1.70;;
14400;SDS011;7285;50.894;5.462;2023-02-07T04:51:21;1.80;;;1.80;;
14400;SDS011;7285;50.894;5.462;2023-02-07T04:53:48;1.60;;;1.60;;
14400;SDS011;7285;50.894;5.462;2023-02-07T04:56:15;1.97;;;1.97;;
14400;SDS011;7285;50.894;5.462;2023-02-07T04:58:43;1.80;;;1.80;;
14400;SDS011;7285;50.894;5.462;2023-02-07T05:01:10;1.70;;;1.70;;
14400;SDS011;7285;50.894;5.462;2023-02-07T05:03:37;1.70;;;1.70;;
14400;SDS011;7285;50.894;5.462;2023-02-07T05:06:04;1.80;;;1.80;;
14400;SDS011;7285;50.894;5.462;2023-02-07T05:08:32;1.70;;;1.70;;
14400;SDS011;7285;50.894;5.462;2023-02-07T05:11:00;1.60;;;1.60;;
14400;SDS011;7285;50.894;5.462;2023-02-07T05:13:28;1.70;;;1.70;;
14400;SDS011;7285;50.894;5.462;2023-02-07T05:15:56;1.80;;;1.80;;
14400;SDS011;7285;50.894;5.462;2023-02-07T05:18:23;1.80;;;1.80;;
14400;SDS011;7285;50.894;5.462;2023-02-07T05:20:51;1.67;;;1.67;;
14400;SDS011;7285;50.894;5.462;2023-02-07T05:23:18;1.80;;;1.80;;
14400;SDS011;7285;50.894;5.462;2023-02-07T05:25:46;1.70;;;1.70;;
14400;SDS011;7285;50.894;5.462;2023-02-07T05:28:13;1.80;;;1.80;;
14400;SDS011;7285;50.894;5.462;2023-02-07T05:30:40;1.77;;;1.77;;
14400;SDS011;7285;50.894;5.462;2023-02-07T05:33:09;1.70;;;1.70;;
14400;SDS011;7285;50.894;5.462;2023-02-07T05:35:36;1.80;;;1.80;;
14400;SDS011;7285;50.894;5.462;2023-02-07T05:38:05;1.80;;;1.80;;
14400;SDS011;7285;50.894;5.462;2023-02-07T05:40:34;1.90;;;1.90;;
14400;SDS011;7285;50.894;5.462;2023-02-07T05:43:01;1.90;;;1.90;;
14400;SDS011;7285;50.894;5.462;2023-02-07T05:45:29;2.40;;;2.40;;
14400;SDS011;7285;50.894;5.462;2023-02-07T05:47:56;1.80;;;1.80;;
14400;SDS011;7285;50.894;5.462;2023-02-07T05:50:25;1.90;;;1.90;;
14400;SDS011;7285;50.894;5.462;2023-02-07T05:52:52;1.90;;;1.90;;
14400;SDS011;7285;50.894;5.462;2023-02-07T05:55:19;1.83;;;1.83;;
14400;SDS011;7285;50.894;5.462;2023-02-07T05:57:46;1.90;;;1.90;;
14400;SDS011;7285;50.894;5.462;2023-02-07T06:00:14;1.90;;;1.90;;
14400;SDS011;7285;50.894;5.462;2023-02-07T06:02:42;1.80;;;1.80;;
14400;SDS011;7285;50.894;5.462;2023-02-07T06:05:11;1.70;;;1.70;;
14400;SDS011;7285;50.894;5.462;2023-02-07T06:07:41;1.77;;;1.77;;
14400;SDS011;7285;50.894;5.462;2023-02-07T06:10:09;1.80;;;1.80;;
14400;SDS011;7285;50.894;5.462;2023-02-07T06:12:37;1.80;;;1.80;;
14400;SDS011;7285;50.894;5.462;2023-02-07T06:15:05;1.73;;;1.73;;
14400;SDS011;7285;50.894;5.462;2023-02-07T06:17:32;1.90;;;1.90;;
14400;SDS011;7285;50.894;5.462;2023-02-07T06:19:59;1.90;;;1.90;;
14400;SDS011;7285;50.894;5.462;2023-02-07T06:22:26;1.87;;;1.87;;
14400;SDS011;7285;50.894;5.462;2023-02-07T06:24:55;1.90;;;1.90;;
14400;SDS011;7285;50.894;5.462;2023-02-07T06:27:22;1.90;;;1.90;;
14400;SDS011;7285;50.894;5.462;2023-02-07T06:29:48;1.80;;;1.80;;
14400;SDS011;7285;50.894;5.462;2023-02-07T06:32:15;1.90;;;1.90;;
14400;SDS011;7285;50.894;5.462;2023-02-07T06:34:42;1.80;;;1.80;;
14400;SDS011;7285;50.894;5.462;2023-02-07T06:37:09;1.90;;;1.90;;
14400;SDS011;7285;50.894;5.462;2023-02-07T06:39:37;1.80;;;1.80;;
14400;SDS011;7285;50.894;5.462;2023-02-07T06:42:06;1.80;;;1.80;;
14400;SDS011;7285;50.894;5.462;2023-02-07T06:44:33;2.43;;;2.43;;
14400;SDS011;7285;50.894;5.462;2023-02-07T06:47:00;1.90;;;1.90;;
14400;SDS011;7285;50.894;5.462;2023-02-07T06:49:26;1.73;;;1.73;;
14400;SDS011;7285;50.894;5.462;2023-02-07T06:51:53;2.10;;;2.10;;
14400;SDS011;7285;50.894;5.462;2023-02-07T06:54:20;1.90;;;1.90;;
14400;SDS011;7285;50.894;5.462;2023-02-07T06:56:47;1.90;;;1.90;;
14400;SDS011;7285;50.894;5.462;2023-02-07T06:59:16;2.00;;;2.00;;
14400;SDS011;7285;50.894;5.462;2023-02-07T07:01:43;2.00;;;2.00;;
14400;SDS011;7285;50.894;5.462;2023-02-07T07:04:10;1.80;;;1.80;;
14400;SDS011;7285;50.894;5.462;2023-02-07T07:06:37;2.00;;;2.00;;
14400;SDS011;7285;50.894;5.462;2023-02-07T07:09:04;1.90;;;1.90;;
14400;SDS011;7285;50.894;5.462;2023-02-07T07:11:31;1.90;;;1.90;;
14400;SDS011;7285;50.894;5.462;2023-02-07T07:13:58;2.00;;;2.00;;
14400;SDS011;7285;50.894;5.462;2023-02-07T07:16:28;2.37;;;2.37;;
14400;SDS011;7285;50.894;5.462;2023-02-07T07:18:55;2.00;;;2.00;;
14400;SDS011;7285;50.894;5.462;2023-02-07T07:21:21;2.00;;;2.00;;
14400;SDS011;7285;50.894;5.462;2023-02-07T07:23:50;1.97;;;1.97;;
14400;SDS011;7285;50.894;5.462;2023-02-07T07:26:17;1.90;;;1.90;;
14400;SDS011;7285;50.894;5.462;2023-02-07T07:28:44;2.10;;;2.10;;
14400;SDS011;7285;50.894;5.462;2023-02-07T07:31:11;2.00;;;2.00;;
14400;SDS011;7285;50.894;5.462;2023-02-07T07:33:40;2.00;;;2.00;;
14400;SDS011;7285;50.894;5.462;2023-02-07T07:36:07;1.90;;;1.90;;
14400;SDS011;7285;50.894;5.462;2023-02-07T07:38:34;1.90;;;1.90;;
14400;SDS011;7285;50.894;5.462;2023-02-07T07:41:01;2.10;;;2.10;;
14400;SDS011;7285;50.894;5.462;2023-02-07T07:43:28;2.03;;;2.03;;
14400;SDS011;7285;50.894;5.462;2023-02-07T07:45:56;1.90;;;1.90;;
14400;SDS011;7285;50.894;5.462;2023-02-07T07:48:25;1.97;;;1.97;;
14400;SDS011;7285;50.894;5.462;2023-02-07T07:50:54;1.90;;;1.90;;
14400;SDS011;7285;50.894;5.462;2023-02-07T07:53:21;1.73;;;1.73;;
14400;SDS011;7285;50.894;5.462;2023-02-07T07:55:48;1.60;;;1.60;;
14400;SDS011;7285;50.894;5.462;2023-02-07T07:58:15;1.87;;;1.87;;
14400;SDS011;7285;50.894;5.462;2023-02-07T08:00:43;2.53;;;2.53;;
14400;SDS011;7285;50.894;5.462;2023-02-07T08:03:11;1.80;;;1.80;;
14400;SDS011;7285;50.894;5.462;2023-02-07T08:05:38;1.57;;;1.57;;
14400;SDS011;7285;50.894;5.462;2023-02-07T08:08:07;1.70;;;1.70;;
14400;SDS011;7285;50.894;5.462;2023-02-07T08:10:34;1.80;;;1.80;;
14400;SDS011;7285;50.894;5.462;2023-02-07T08:13:01;1.90;;;1.90;;
14400;SDS011;7285;50.894;5.462;2023-02-07T08:15:27;2.13;;;2.13;;
14400;SDS011;7285;50.894;5.462;2023-02-07T08:17:55;1.70;;;1.70;;
14400;SDS011;7285;50.894;5.462;2023-02-07T08:20:22;1.60;;;1.60;;
14400;SDS011;7285;50.894;5.462;2023-02-07T08:22:49;1.63;;;1.63;;
14400;SDS011;7285;50.894;5.462;2023-02-07T08:25:17;1.80;;;1.80;;
14400;SDS011;7285;50.894;5.462;2023-02-07T08:27:44;1.70;;;1.70;;
14400;SDS011;7285;50.894;5.462;2023-02-07T08:30:12;1.70;;;1.70;;
14400;SDS011;7285;50.894;5.462;2023-02-07T08:32:40;1.50;;;1.50;;
14400;SDS011;7285;50.894;5.462;2023-02-07T08:35:07;1.80;;;1.80;;
14400;SDS011;7285;50.894;5.462;2023-02-07T08:37:35;2.10;;;2.10;;
14400;SDS011;7285;50.894;5.462;2023-02-07T08:40:02;1.50;;;1.50;;
14400;SDS011;7285;50.894;5.462;2023-02-07T08:42:31;2.30;;;2.23;;
14400;SDS011;7285;50.894;5.462;2023-02-07T08:44:58;1.70;;;1.70;;
14400;SDS011;7285;50.894;5.462;2023-02-07T08:47:25;1.60;;;1.60;;
14400;SDS011;7285;50.894;5.462;2023-02-07T08:49:52;1.77;;;1.77;;
14400;SDS011;7285;50.894;5.462;2023-02-07T08:52:18;1.50;;;1.50;;
14400;SDS011;7285;50.894;5.462;2023-02-07T08:54:45;1.40;;;1.40;;
14400;SDS011;7285;50.894;5.462;2023-02-07T08:57:12;1.43;;;1.43;;
14400;SDS011;7285;50.894;5.462;2023-02-07T08:59:41;1.40;;;1.40;;
14400;SDS011;7285;50.894;5.462;2023-02-07T09:02:09;1.50;;;1.50;;
14400;SDS011;7285;50.894;5.462;2023-02-07T09:04:37;1.57;;;1.57;;
14400;SDS011;7285;50.894;5.462;2023-02-07T09:07:06;2.00;;;2.00;;
14400;SDS011;7285;50.894;5.462;2023-02-07T09:09:33;2.20;;;2.20;;
14400;SDS011;7285;50.894;5.462;2023-02-07T09:12:00;2.10;;;2.10;;
14400;SDS011;7285;50.894;5.462;2023-02-07T09:14:27;1.50;;;1.50;;
14400;SDS011;7285;50.894;5.462;2023-02-07T09:16:56;1.40;;;1.40;;
14400;SDS011;7285;50.894;5.462;2023-02-07T09:19:23;1.40;;;1.40;;
14400;SDS011;7285;50.894;5.462;2023-02-07T09:21:50;1.40;;;1.40;;
14400;SDS011;7285;50.894;5.462;2023-02-07T09:24:17;1.23;;;1.23;;
14400;SDS011;7285;50.894;5.462;2023-02-07T09:26:45;1.67;;;1.67;;
14400;SDS011;7285;50.894;5.462;2023-02-07T09:29:12;1.23;;;1.23;;
14400;SDS011;7285;50.894;5.462;2023-02-07T09:31:40;1.27;;;1.27;;
14400;SDS011;7285;50.894;5.462;2023-02-07T09:34:09;1.73;;;1.73;;
14400;SDS011;7285;50.894;5.462;2023-02-07T09:36:36;2.13;;;2.13;;
14400;SDS011;7285;50.894;5.462;2023-02-07T09:39:04;1.60;;;1.60;;
14400;SDS011;7285;50.894;5.462;2023-02-07T09:41:33;1.10;;;1.10;;
14400;SDS011;7285;50.894;5.462;2023-02-07T09:44:08;1.30;;;1.30;;
14400;SDS011;7285;50.894;5.462;2023-02-07T09:46:42;0.90;;;0.90;;
14400;SDS011;7285;50.894;5.462;2023-02-07T09:49:16;1.50;;;1.50;;
14400;SDS011;7285;50.894;5.462;2023-02-07T09:51:54;1.23;;;1.23;;
14400;SDS011;7285;50.894;5.462;2023-02-07T09:54:23;1.00;;;1.00;;
14400;SDS011;7285;50.894;5.462;2023-02-07T09:56:53;1.00;;;1.00;;
14400;SDS011;7285;50.894;5.462;2023-02-07T09:59:22;0.90;;;0.90;;
14400;SDS011;7285;50.894;5.462;2023-02-07T10:01:54;0.97;;;0.97;;
14400;SDS011;7285;50.894;5.462;2023-02-07T10:04:30;1.00;;;1.00;;
14400;SDS011;7285;50.894;5.462;2023-02-07T10:07:02;1.90;;;1.90;;
14400;SDS011;7285;50.894;5.462;2023-02-07T10:09:35;1.07;;;1.07;;
14400;SDS011;7285;50.894;5.462;2023-02-07T10:12:06;1.40;;;1.40;;
14400;SDS011;7285;50.894;5.462;2023-02-07T10:15:10;0.90;;;0.90;;
14400;SDS011;7285;50.894;5.462;2023-02-07T10:17:57;1.50;;;1.50;;
14400;SDS011;7285;50.894;5.462;2023-02-07T10:20:37;1.40;;;1.40;;
14400;SDS011;7285;50.894;5.462;2023-02-07T10:23:09;1.20;;;1.20;;
14400;SDS011;7285;50.894;5.462;2023-02-07T10:25:49;1.00;;;1.00;;
14400;SDS011;7285;50.894;5.462;2023-02-07T10:28:30;0.90;;;0.90;;
14400;SDS011;7285;50.894;5.462;2023-02-07T10:31:10;1.00;;;1.00;;
14400;SDS011;7285;50.894;5.462;2023-02-07T10:33:42;1.50;;;1.50;;
14400;SDS011;7285;50.894;5.462;2023-02-07T10:36:15;1.00;;;1.00;;
14400;SDS011;7285;50.894;5.462;2023-02-07T10:38:44;1.73;;;1.73;;
14400;SDS011;7285;50.894;5.462;2023-02-07T10:41:19;1.00;;;1.00;;
14400;SDS011;7285;50.894;5.462;2023-02-07T10:43:52;1.20;;;1.20;;
14400;SDS011;7285;50.894;5.462;2023-02-07T10:46:19;1.30;;;1.30;;
14400;SDS011;7285;50.894;5.462;2023-02-07T10:48:48;1.10;;;1.10;;
14400;SDS011;7285;50.894;5.462;2023-02-07T10:51:20;1.10;;;1.10;;
14400;SDS011;7285;50.894;5.462;2023-02-07T10:54:00;1.00;;;1.00;;
14400;SDS011;7285;50.894;5.462;2023-02-07T10:56:32;1.13;;;1.13;;
14400;SDS011;7285;50.894;5.462;2023-02-07T10:59:01;0.80;;;0.80;;
14400;SDS011;7285;50.894;5.462;2023-02-07T11:01:29;1.30;;;1.30;;
14400;SDS011;7285;50.894;5.462;2023-02-07T11:03:58;0.90;;;0.90;;
14400;SDS011;7285;50.894;5.462;2023-02-07T11:06:27;1.17;;;1.17;;
14400;SDS011;7285;50.894;5.462;2023-02-07T11:09:11;1.50;;;1.50;;
14400;SDS011;7285;50.894;5.462;2023-02-07T11:11:46;1.27;;;1.27;;
14400;SDS011;7285;50.894;5.462;2023-02-07T11:14:15;1.27;;;1.27;;
14400;SDS011;7285;50.894;5.462;2023-02-07T11:16:50;1.10;;;1.10;;
14400;SDS011;7285;50.894;5.462;2023-02-07T11:19:19;1.10;;;1.10;;
14400;SDS011;7285;50.894;5.462;2023-02-07T11:21:50;0.80;;;0.80;;
14400;SDS011;7285;50.894;5.462;2023-02-07T11:24:23;1.20;;;1.20;;
14400;SDS011;7285;50.894;5.462;2023-02-07T11:26:59;1.77;;;1.73;;
14400;SDS011;7285;50.894;5.462;2023-02-07T11:29:28;1.00;;;1.00;;
14400;SDS011;7285;50.894;5.462;2023-02-07T11:31:57;0.90;;;0.90;;
14400;SDS011;7285;50.894;5.462;2023-02-07T11:34:37;1.10;;;1.10;;
14400;SDS011;7285;50.894;5.462;2023-02-07T11:37:17;1.10;;;1.10;;
14400;SDS011;7285;50.894;5.462;2023-02-07T11:39:48;1.17;;;1.17;;
14400;SDS011;7285;50.894;5.462;2023-02-07T11:42:17;0.90;;;0.90;;
14400;SDS011;7285;50.894;5.462;2023-02-07T11:44:46;1.30;;;1.30;;
14400;SDS011;7285;50.894;5.462;2023-02-07T11:47:15;1.10;;;1.10;;
14400;SDS011;7285;50.894;5.462;2023-02-07T11:49:46;1.03;;;1.03;;
14400;SDS011;7285;50.894;5.462;2023-02-07T11:52:18;0.80;;;0.80;;
14400;SDS011;7285;50.894;5.462;2023-02-07T11:54:47;1.40;;;1.40;;
14400;SDS011;7285;50.894;5.462;2023-02-07T11:57:16;1.00;;;1.00;;
14400;SDS011;7285;50.894;5.462;2023-02-07T11:59:48;1.07;;;1.07;;
14400;SDS011;7285;50.894;5.462;2023-02-07T12:02:19;1.30;;;1.30;;
14400;SDS011;7285;50.894;5.462;2023-02-07T12:04:48;1.37;;;1.37;;
14400;SDS011;7285;50.894;5.462;2023-02-07T12:07:20;1.57;;;1.57;;
14400;SDS011;7285;50.894;5.462;2023-02-07T12:09:51;0.90;;;0.90;;
14400;SDS011;7285;50.894;5.462;2023-02-07T12:12:22;1.30;;;1.30;;
14400;SDS011;7285;50.894;5.462;2023-02-07T12:14:54;0.97;;;0.97;;
14400;SDS011;7285;50.894;5.462;2023-02-07T12:17:28;1.23;;;1.23;;
14400;SDS011;7285;50.894;5.462;2023-02-07T12:20:05;0.90;;;0.90;;
14400;SDS011;7285;50.894;5.462;2023-02-07T12:22:39;1.10;;;1.10;;
14400;SDS011;7285;50.894;5.462;2023-02-07T12:25:13;1.00;;;1.00;;
14400;SDS011;7285;50.894;5.462;2023-02-07T12:27:46;1.43;;;1.43;;
14400;SDS011;7285;50.894;5.462;2023-02-07T12:30:19;0.80;;;0.80;;
14400;SDS011;7285;50.894;5.462;2023-02-07T12:32:57;1.20;;;1.20;;
14400;SDS011;7285;50.894;5.462;2023-02-07T12:35:32;1.30;;;1.30;;
14400;SDS011;7285;50.894;5.462;2023-02-07T12:38:11;1.00;;;1.00;;
14400;SDS011;7285;50.894;5.462;2023-02-07T12:40:42;1.53;;;1.53;;
14400;SDS011;7285;50.894;5.462;2023-02-07T12:43:13;1.60;;;1.60;;
14400;SDS011;7285;50.894;5.462;2023-02-07T12:45:50;2.63;;;2.60;;
14400;SDS011;7285;50.894;5.462;2023-02-07T12:48:30;1.10;;;1.10;;
14400;SDS011;7285;50.894;5.462;2023-02-07T12:51:09;0.87;;;0.87;;
14400;SDS011;7285;50.894;5.462;2023-02-07T12:53:47;0.90;;;0.90;;
14400;SDS011;7285;50.894;5.462;2023-02-07T12:56:29;1.03;;;1.03;;
14400;SDS011;7285;50.894;5.462;2023-02-07T12:59:08;1.10;;;1.10;;
14400;SDS011;7285;50.894;5.462;2023-02-07T13:01:41;1.53;;;1.53;;
14400;SDS011;7285;50.894;5.462;2023-02-07T13:04:19;0.90;;;0.90;;
14400;SDS011;7285;50.894;5.462;2023-02-07T13:07:17;1.73;;;1.73;;
14400;SDS011;7285;50.894;5.462;2023-02-07T13:10:02;1.20;;;1.20;;
14400;SDS011;7285;50.894;5.462;2023-02-07T13:12:39;0.90;;;0.90;;
14400;SDS011;7285;50.894;5.462;2023-02-07T13:15:17;1.20;;;1.20;;
14400;SDS011;7285;50.894;5.462;2023-02-07T13:17:50;1.07;;;1.07;;
14400;SDS011;7285;50.894;5.462;2023-02-07T13:20:24;1.40;;;1.40;;
14400;SDS011;7285;50.894;5.462;2023-02-07T13:22:57;0.90;;;0.90;;
14400;SDS011;7285;50.894;5.462;2023-02-07T13:25:28;0.90;;;0.90;;
14400;SDS011;7285;50.894;5.462;2023-02-07T13:27:59;1.03;;;1.03;;
14400;SDS011;7285;50.894;5.462;2023-02-07T13:30:32;1.13;;;1.13;;
14400;SDS011;7285;50.894;5.462;2023-02-07T13:33:02;1.30;;;1.30;;
14400;SDS011;7285;50.894;5.462;2023-02-07T13:35:38;1.17;;;1.17;;
14400;SDS011;7285;50.894;5.462;2023-02-07T13:38:06;1.00;;;1.00;;
14400;SDS011;7285;50.894;5.462;2023-02-07T13:40:45;1.00;;;1.00;;
14400;SDS011;7285;50.894;5.462;2023-02-07T13:43:22;1.57;;;1.57;;
14400;SDS011;7285;50.894;5.462;2023-02-07T13:46:06;1.40;;;1.40;;
14400;SDS011;7285;50.894;5.462;2023-02-07T13:48:44;1.27;;;1.27;;
14400;SDS011;7285;50.894;5.462;2023-02-07T13:51:16;1.60;;;1.60;;
14400;SDS011;7285;50.894;5.462;2023-02-07T13:53:50;1.33;;;1.33;;
14400;SDS011;7285;50.894;5.462;2023-02-07T13:56:30;1.20;;;1.20;;
14400;SDS011;7285;50.894;5.462;2023-02-07T13:59:31;1.30;;;1.30;;
14400;SDS011;7285;50.894;5.462;2023-02-07T14:02:05;1.50;;;1.50;;
14400;SDS011;7285;50.894;5.462;2023-02-07T14:04:45;1.30;;;1.30;;
14400;SDS011;7285;50.894;5.462;2023-02-07T14:07:18;1.23;;;1.23;;
14400;SDS011;7285;50.894;5.462;2023-02-07T14:09:48;1.93;;;1.83;;
14400;SDS011;7285;50.894;5.462;2023-02-07T14:12:18;1.20;;;1.20;;
14400;SDS011;7285;50.894;5.462;2023-02-07T14:14:49;1.17;;;1.17;;
14400;SDS011;7285;50.894;5.462;2023-02-07T14:23:15;0.83;;;0.83;;
14400;SDS011;7285;50.894;5.462;2023-02-07T14:25:43;0.70;;;0.70;;
14400;SDS011;7285;50.894;5.462;2023-02-07T14:28:29;1.60;;;1.50;;
14400;SDS011;7285;50.894;5.462;2023-02-07T14:31:18;0.87;;;0.87;;
14400;SDS011;7285;50.894;5.462;2023-02-07T14:36:38;1.47;;;1.47;;
14400;SDS011;7285;50.894;5.462;2023-02-07T14:39:19;0.70;;;0.70;;
14400;SDS011;7285;50.894;5.462;2023-02-07T14:41:54;0.90;;;0.90;;
14400;SDS011;7285;50.894;5.462;2023-02-07T14:44:36;1.20;;;1.20;;
14400;SDS011;7285;50.894;5.462;2023-02-07T14:47:06;1.70;;;1.70;;
14400;SDS011;7285;50.894;5.462;2023-02-07T14:49:44;1.20;;;1.20;;
14400;SDS011;7285;50.894;5.462;2023-02-07T14:52:14;1.10;;;1.10;;
14400;SDS011;7285;50.894;5.462;2023-02-07T14:54:49;0.80;;;0.80;;
14400;SDS011;7285;50.894;5.462;2023-02-07T14:57:23;0.70;;;0.70;;
14400;SDS011;7285;50.894;5.462;2023-02-07T15:00:00;1.13;;;1.13;;
14400;SDS011;7285;50.894;5.462;2023-02-07T15:02:33;0.73;;;0.73;;
14400;SDS011;7285;50.894;5.462;2023-02-07T15:05:14;0.80;;;0.80;;
14400;SDS011;7285;50.894;5.462;2023-02-07T15:07:43;0.90;;;0.90;;
14400;SDS011;7285;50.894;5.462;2023-02-07T15:10:14;0.90;;;0.90;;
14400;SDS011;7285;50.894;5.462;2023-02-07T15:12:46;0.77;;;0.77;;
14400;SDS011;7285;50.894;5.462;2023-02-07T15:15:19;0.77;;;0.77;;
14400;SDS011;7285;50.894;5.462;2023-02-07T15:17:48;1.47;;;1.40;;
14400;SDS011;7285;50.894;5.462;2023-02-07T15:20:17;1.57;;;1.57;;
14400;SDS011;7285;50.894;5.462;2023-02-07T15:22:47;1.00;;;1.00;;
14400;SDS011;7285;50.894;5.462;2023-02-07T15:25:18;1.30;;;1.30;;
14400;SDS011;7285;50.894;5.462;2023-02-07T15:27:56;1.17;;;1.17;;
14400;SDS011;7285;50.894;5.462;2023-02-07T15:30:26;1.20;;;1.20;;
14400;SDS011;7285;50.894;5.462;2023-02-07T15:32:53;1.00;;;1.00;;
14400;SDS011;7285;50.894;5.462;2023-02-07T15:35:21;1.10;;;1.10;;
14400;SDS011;7285;50.894;5.462;2023-02-07T15:37:51;1.20;;;1.20;;